Startpagina
METAR-TAF:

METAR-TAF

Vliegvelden :

Lanseria International Airport

Lanseria, Zuid-Afrika

breedte: 25-56S, lengte: 027-56E, hoogte: 1377 m

Actueel weer

Dit bericht is 44 minuten geleden gemaakt, om 08:00 UTC
Wind 4 kt uit variabele richting
Temperatuur 14°C
Vochtigheid 31%
Druk 1036 hPa
Zicht 10 km of meer
geen wolken onder 1500 m en geen cumulonimbus

METAR: FALA 190800Z VRB04KT CAVOK 14/M03 Q1036 NOSIG

Tijdstip: 10:44 (08:44 UTC)

Verwachting

Dit bericht is 4 uur en het 44 minuten geleden gemaakt, om 04:00 UTC
Verwachting geldig van 19 om 06 UTC tot 20 om 06 UTC
Wind 3 kt uit variabele richting
Zicht 10 km of meer
geen wolken onder 1500 m en geen cumulonimbus
Wijzigt naar
van 19 om 18 UTC tot 19 om 20 UTC
Wind 6 kt uit het zuiden

TAF: FALA 190400Z 1906/2006 VRB03KT CAVOK TX20/1912Z TN05/2005Z BECMG 1918/1920 18006KT

Waarnemingen en weersverwachtingen van meer dan 4000 vliegvelden (METAR en TAF).

De beschikbare stations zijn de gele en rode punten op de kaart.

Ga met uw muis naar het station om de naam te zien.

Klik dan om waarnemingen en weersverwachtingen te zien.

kaart wijzigen: klik op de groene knoppen met een zwart kruis om in te zoomen, op de groene knop met een streepje om uit te zoomen of op de groene pijlen voor aangrenzende kaarten.


METAR-TAF: